Etusivu
METAR-TAF:

METAR-TAF

Lentoasemat :

Vesisaari, Norja

Leveyspiiri: 70-04N, Pituuspiiri: 029-51E, korkeus merenpinnasta: 3 m

Tämänhetkinen sää

Tämä raportti tehtiin 2 tuntia ja 54 minuuttia sitten, kello 15.50 UTC
Tuuli 8 kn idästä/koillisesta
Lämpötila 11°C
Kosteus 82%
Ilmanpaine 1026 hPa
Näkyvyys 10 km tai enemmän
Hajonneita pilviä 1000 ft:n korkeudessa

METAR: ENVD 221550Z 07008KT 9999 BKN010 11/08 Q1026

Aika: 20:44 (18:44 UTC)

Sääennuste

Tämä raportti tehtiin 10 tuntia ja 44 minuuttia sitten, kello 08.00 UTC
Ennuste voimassa 22. päivästä klo 09 UTC - 22. päivään klo 13 UTC
Tuuli 8 kn idästä/kaakosta
Näkyvyys 10 km tai enemmän
Hajanaisia pilviä 2000 ft:n korkeudessa

TAF: ENVD 220800Z 2209/2213 12008KT 9999 SCT020

Säähavainnot ja -ennusteet yli 4000 lentoasemalta (METAR- ja TAF-raportit).

Käytössä olevat sääasemat on merkitty karttaan keltaisilla ja punaisilla pisteillä.

Aseta hiiri pisteen päälle nähdäksesi sääaseman nimen.

Klikkaa sitten nähdäksesi säähavainnot ja -ennusteet.

Kartan vaihtaminen: klikkaa mustalla rastilla varustettuja vihreitä pisteitä, niin voit zoomata sisään; viivalla varustettua vihreää pistettä, niin voit zoomata ulos tai vihreitä nuolia, niin pääset viereisille kartoille.


METAR-TAF: